sensor_id;sensor_type;location;lat;lon;timestamp;temperature;humidity
12819;DHT22;6474;53.474;9.894;2023-06-01T00:01:43;13.80;64.30
12819;DHT22;6474;53.474;9.894;2023-06-01T00:04:11;13.80;64.30
12819;DHT22;6474;53.474;9.894;2023-06-01T00:06:39;13.80;64.20
12819;DHT22;6474;53.474;9.894;2023-06-01T00:09:07;13.80;64.20
12819;DHT22;6474;53.474;9.894;2023-06-01T00:11:35;13.80;64.20
12819;DHT22;6474;53.474;9.894;2023-06-01T00:14:03;13.80;64.20
12819;DHT22;6474;53.474;9.894;2023-06-01T00:16:32;13.80;64.20
12819;DHT22;6474;53.474;9.894;2023-06-01T00:19:00;13.80;64.20
12819;DHT22;6474;53.474;9.894;2023-06-01T00:21:30;13.80;64.20
12819;DHT22;6474;53.474;9.894;2023-06-01T00:23:59;13.80;64.20
12819;DHT22;6474;53.474;9.894;2023-06-01T00:26:28;13.80;64.10
12819;DHT22;6474;53.474;9.894;2023-06-01T00:28:58;13.80;64.10
12819;DHT22;6474;53.474;9.894;2023-06-01T00:31:26;13.80;64.20
12819;DHT22;6474;53.474;9.894;2023-06-01T00:33:55;13.80;64.20
12819;DHT22;6474;53.474;9.894;2023-06-01T00:36:23;13.80;64.20
12819;DHT22;6474;53.474;9.894;2023-06-01T00:38:51;13.80;64.30
12819;DHT22;6474;53.474;9.894;2023-06-01T00:41:19;13.80;64.20
12819;DHT22;6474;53.474;9.894;2023-06-01T00:43:47;13.70;64.20
12819;DHT22;6474;53.474;9.894;2023-06-01T00:46:15;13.70;64.30
12819;DHT22;6474;53.474;9.894;2023-06-01T00:48:43;13.70;64.40
12819;DHT22;6474;53.474;9.894;2023-06-01T00:51:12;13.60;64.30
12819;DHT22;6474;53.474;9.894;2023-06-01T00:53:41;13.60;64.30
12819;DHT22;6474;53.474;9.894;2023-06-01T00:56:10;13.60;64.40
12819;DHT22;6474;53.474;9.894;2023-06-01T00:58:39;13.60;64.40
12819;DHT22;6474;53.474;9.894;2023-06-01T01:01:08;13.60;64.40
12819;DHT22;6474;53.474;9.894;2023-06-01T01:03:46;13.60;64.40
12819;DHT22;6474;53.474;9.894;2023-06-01T01:06:27;13.60;64.40
12819;DHT22;6474;53.474;9.894;2023-06-01T01:09:06;13.60;64.40
12819;DHT22;6474;53.474;9.894;2023-06-01T01:11:38;13.60;64.30
12819;DHT22;6474;53.474;9.894;2023-06-01T01:14:11;13.60;64.40
12819;DHT22;6474;53.474;9.894;2023-06-01T01:16:45;13.60;64.40
12819;DHT22;6474;53.474;9.894;2023-06-01T01:19:29;13.60;64.50
12819;DHT22;6474;53.474;9.894;2023-06-01T01:22:13;13.60;65.20
12819;DHT22;6474;53.474;9.894;2023-06-01T01:25:02;13.50;64.40
12819;DHT22;6474;53.474;9.894;2023-06-01T01:27:39;13.60;64.40
12819;DHT22;6474;53.474;9.894;2023-06-01T01:30:11;13.50;64.30
12819;DHT22;6474;53.474;9.894;2023-06-01T01:32:41;13.50;64.40
12819;DHT22;6474;53.474;9.894;2023-06-01T01:35:09;13.50;64.40
12819;DHT22;6474;53.474;9.894;2023-06-01T01:37:49;13.50;64.40
12819;DHT22;6474;53.474;9.894;2023-06-01T01:40:18;13.40;64.40
12819;DHT22;6474;53.474;9.894;2023-06-01T01:42:48;13.50;64.50
12819;DHT22;6474;53.474;9.894;2023-06-01T01:45:18;13.40;64.40
12819;DHT22;6474;53.474;9.894;2023-06-01T01:47:51;13.40;64.50
12819;DHT22;6474;53.474;9.894;2023-06-01T01:50:25;13.40;64.50
12819;DHT22;6474;53.474;9.894;2023-06-01T01:52:55;13.40;64.60
12819;DHT22;6474;53.474;9.894;2023-06-01T01:55:24;13.40;64.60
12819;DHT22;6474;53.474;9.894;2023-06-01T01:57:54;13.30;64.60
12819;DHT22;6474;53.474;9.894;2023-06-01T02:00:24;13.30;64.60
12819;DHT22;6474;53.474;9.894;2023-06-01T02:02:52;13.40;64.70
12819;DHT22;6474;53.474;9.894;2023-06-01T02:05:20;13.40;64.50
12819;DHT22;6474;53.474;9.894;2023-06-01T02:07:49;13.40;64.50
12819;DHT22;6474;53.474;9.894;2023-06-01T02:10:16;13.40;65.20
12819;DHT22;6474;53.474;9.894;2023-06-01T02:12:44;13.40;64.40
12819;DHT22;6474;53.474;9.894;2023-06-01T02:15:12;13.40;64.40
12819;DHT22;6474;53.474;9.894;2023-06-01T02:17:41;13.40;64.50
12819;DHT22;6474;53.474;9.894;2023-06-01T02:20:12;13.30;64.30
12819;DHT22;6474;53.474;9.894;2023-06-01T02:22:40;13.40;64.40
12819;DHT22;6474;53.474;9.894;2023-06-01T02:25:09;13.40;64.30
12819;DHT22;6474;53.474;9.894;2023-06-01T02:27:37;13.40;64.30
12819;DHT22;6474;53.474;9.894;2023-06-01T02:30:05;13.40;64.30
12819;DHT22;6474;53.474;9.894;2023-06-01T02:32:34;13.40;64.30
12819;DHT22;6474;53.474;9.894;2023-06-01T02:35:06;13.40;64.30
12819;DHT22;6474;53.474;9.894;2023-06-01T02:37:34;13.40;64.40
12819;DHT22;6474;53.474;9.894;2023-06-01T02:40:02;13.40;64.40
12819;DHT22;6474;53.474;9.894;2023-06-01T02:42:30;13.40;64.30
12819;DHT22;6474;53.474;9.894;2023-06-01T02:44:58;13.50;64.40
12819;DHT22;6474;53.474;9.894;2023-06-01T02:47:26;13.50;64.30
12819;DHT22;6474;53.474;9.894;2023-06-01T02:49:54;13.50;64.20
12819;DHT22;6474;53.474;9.894;2023-06-01T02:52:23;13.50;64.30
12819;DHT22;6474;53.474;9.894;2023-06-01T02:54:51;13.40;64.20
12819;DHT22;6474;53.474;9.894;2023-06-01T02:57:19;13.40;64.30
12819;DHT22;6474;53.474;9.894;2023-06-01T02:59:47;13.40;64.30
12819;DHT22;6474;53.474;9.894;2023-06-01T03:02:14;13.40;64.30
12819;DHT22;6474;53.474;9.894;2023-06-01T03:04:42;13.40;64.30
12819;DHT22;6474;53.474;9.894;2023-06-01T03:07:12;13.30;64.30
12819;DHT22;6474;53.474;9.894;2023-06-01T03:09:42;13.40;64.50
12819;DHT22;6474;53.474;9.894;2023-06-01T03:12:10;13.30;64.30
12819;DHT22;6474;53.474;9.894;2023-06-01T03:14:38;13.40;64.40
12819;DHT22;6474;53.474;9.894;2023-06-01T03:17:06;13.30;64.30
12819;DHT22;6474;53.474;9.894;2023-06-01T03:19:33;13.30;64.40
12819;DHT22;6474;53.474;9.894;2023-06-01T03:22:01;13.30;64.40
12819;DHT22;6474;53.474;9.894;2023-06-01T03:24:29;13.30;64.40
12819;DHT22;6474;53.474;9.894;2023-06-01T03:26:58;13.30;64.40
12819;DHT22;6474;53.474;9.894;2023-06-01T03:29:27;13.30;64.40
12819;DHT22;6474;53.474;9.894;2023-06-01T03:31:55;13.30;64.40
12819;DHT22;6474;53.474;9.894;2023-06-01T03:34:23;13.30;64.50
12819;DHT22;6474;53.474;9.894;2023-06-01T03:36:51;13.30;64.60
12819;DHT22;6474;53.474;9.894;2023-06-01T03:39:18;13.20;64.60
12819;DHT22;6474;53.474;9.894;2023-06-01T03:41:46;13.30;64.70
12819;DHT22;6474;53.474;9.894;2023-06-01T03:44:15;13.30;64.70
12819;DHT22;6474;53.474;9.894;2023-06-01T03:46:43;13.30;64.70
12819;DHT22;6474;53.474;9.894;2023-06-01T03:49:12;13.30;64.50
12819;DHT22;6474;53.474;9.894;2023-06-01T03:51:39;13.30;64.60
12819;DHT22;6474;53.474;9.894;2023-06-01T03:54:07;13.20;64.60
12819;DHT22;6474;53.474;9.894;2023-06-01T03:56:35;13.20;64.60
12819;DHT22;6474;53.474;9.894;2023-06-01T03:59:03;13.20;64.60
12819;DHT22;6474;53.474;9.894;2023-06-01T04:01:34;13.20;64.70
12819;DHT22;6474;53.474;9.894;2023-06-01T04:04:07;13.20;64.60
12819;DHT22;6474;53.474;9.894;2023-06-01T04:06:35;13.30;64.70
12819;DHT22;6474;53.474;9.894;2023-06-01T04:09:03;13.30;64.60
12819;DHT22;6474;53.474;9.894;2023-06-01T04:11:33;13.30;64.60
12819;DHT22;6474;53.474;9.894;2023-06-01T04:14:01;13.30;64.50
12819;DHT22;6474;53.474;9.894;2023-06-01T04:16:29;13.30;64.40
12819;DHT22;6474;53.474;9.894;2023-06-01T04:18:59;13.40;64.50
12819;DHT22;6474;53.474;9.894;2023-06-01T04:21:27;13.40;64.50
12819;DHT22;6474;53.474;9.894;2023-06-01T04:23:54;13.40;64.40
12819;DHT22;6474;53.474;9.894;2023-06-01T04:26:22;13.40;64.40
12819;DHT22;6474;53.474;9.894;2023-06-01T04:28:51;13.40;64.50
12819;DHT22;6474;53.474;9.894;2023-06-01T04:31:23;13.40;64.70
12819;DHT22;6474;53.474;9.894;2023-06-01T04:33:51;13.40;64.70
12819;DHT22;6474;53.474;9.894;2023-06-01T04:36:22;13.40;64.70
12819;DHT22;6474;53.474;9.894;2023-06-01T04:38:50;13.40;64.60
12819;DHT22;6474;53.474;9.894;2023-06-01T04:41:21;13.50;64.80
12819;DHT22;6474;53.474;9.894;2023-06-01T04:43:49;13.50;64.90
12819;DHT22;6474;53.474;9.894;2023-06-01T04:46:19;13.50;64.70
12819;DHT22;6474;53.474;9.894;2023-06-01T04:48:47;13.50;64.50
12819;DHT22;6474;53.474;9.894;2023-06-01T04:51:15;13.60;64.50
12819;DHT22;6474;53.474;9.894;2023-06-01T04:53:49;13.60;64.50
12819;DHT22;6474;53.474;9.894;2023-06-01T04:56:18;13.60;64.40
12819;DHT22;6474;53.474;9.894;2023-06-01T04:58:46;13.60;64.40
12819;DHT22;6474;53.474;9.894;2023-06-01T05:01:14;13.60;64.50
12819;DHT22;6474;53.474;9.894;2023-06-01T05:03:43;13.70;64.60
12819;DHT22;6474;53.474;9.894;2023-06-01T05:06:13;13.70;64.50
12819;DHT22;6474;53.474;9.894;2023-06-01T05:08:42;13.70;64.50
12819;DHT22;6474;53.474;9.894;2023-06-01T05:11:11;13.70;64.40
12819;DHT22;6474;53.474;9.894;2023-06-01T05:13:39;13.70;64.50
12819;DHT22;6474;53.474;9.894;2023-06-01T05:16:08;13.70;64.50
12819;DHT22;6474;53.474;9.894;2023-06-01T05:18:36;13.70;64.40
12819;DHT22;6474;53.474;9.894;2023-06-01T05:21:04;13.70;64.40
12819;DHT22;6474;53.474;9.894;2023-06-01T05:23:32;13.80;64.50
12819;DHT22;6474;53.474;9.894;2023-06-01T05:26:00;13.80;64.50
12819;DHT22;6474;53.474;9.894;2023-06-01T05:28:31;13.80;64.40
12819;DHT22;6474;53.474;9.894;2023-06-01T05:31:01;13.80;64.40
12819;DHT22;6474;53.474;9.894;2023-06-01T05:33:30;13.80;64.40
12819;DHT22;6474;53.474;9.894;2023-06-01T05:35:58;13.90;64.50
12819;DHT22;6474;53.474;9.894;2023-06-01T05:38:26;13.80;64.40
12819;DHT22;6474;53.474;9.894;2023-06-01T05:40:54;13.90;64.50
12819;DHT22;6474;53.474;9.894;2023-06-01T05:43:22;13.90;64.40
12819;DHT22;6474;53.474;9.894;2023-06-01T05:45:51;13.90;64.40
12819;DHT22;6474;53.474;9.894;2023-06-01T05:48:19;13.90;64.50
12819;DHT22;6474;53.474;9.894;2023-06-01T05:50:46;14.00;64.50
12819;DHT22;6474;53.474;9.894;2023-06-01T05:53:14;14.00;64.40
12819;DHT22;6474;53.474;9.894;2023-06-01T05:55:42;14.00;64.30
12819;DHT22;6474;53.474;9.894;2023-06-01T05:58:10;14.00;64.30
12819;DHT22;6474;53.474;9.894;2023-06-01T06:00:38;14.10;64.50
12819;DHT22;6474;53.474;9.894;2023-06-01T06:03:07;14.10;64.50
12819;DHT22;6474;53.474;9.894;2023-06-01T06:05:35;14.10;64.40
12819;DHT22;6474;53.474;9.894;2023-06-01T06:08:03;14.10;64.30
12819;DHT22;6474;53.474;9.894;2023-06-01T06:10:31;14.10;64.30
12819;DHT22;6474;53.474;9.894;2023-06-01T06:12:58;14.10;64.30
12819;DHT22;6474;53.474;9.894;2023-06-01T06:15:26;14.10;64.20
12819;DHT22;6474;53.474;9.894;2023-06-01T06:17:54;14.10;64.30
12819;DHT22;6474;53.474;9.894;2023-06-01T06:20:23;14.10;64.30
12819;DHT22;6474;53.474;9.894;2023-06-01T06:22:52;14.10;64.40
12819;DHT22;6474;53.474;9.894;2023-06-01T06:25:20;14.10;64.30
12819;DHT22;6474;53.474;9.894;2023-06-01T06:27:48;14.10;64.50
12819;DHT22;6474;53.474;9.894;2023-06-01T06:30:16;14.10;64.50
12819;DHT22;6474;53.474;9.894;2023-06-01T06:32:44;14.10;64.60
12819;DHT22;6474;53.474;9.894;2023-06-01T06:35:12;14.20;64.60
12819;DHT22;6474;53.474;9.894;2023-06-01T06:37:42;14.20;64.50
12819;DHT22;6474;53.474;9.894;2023-06-01T06:40:10;14.20;64.50
12819;DHT22;6474;53.474;9.894;2023-06-01T06:42:39;14.20;64.50
12819;DHT22;6474;53.474;9.894;2023-06-01T06:45:08;14.20;64.40
12819;DHT22;6474;53.474;9.894;2023-06-01T06:47:36;14.20;64.40
12819;DHT22;6474;53.474;9.894;2023-06-01T06:50:05;14.20;64.40
12819;DHT22;6474;53.474;9.894;2023-06-01T06:52:33;14.20;64.40
12819;DHT22;6474;53.474;9.894;2023-06-01T06:55:03;14.30;64.50
12819;DHT22;6474;53.474;9.894;2023-06-01T06:57:31;14.20;64.50
12819;DHT22;6474;53.474;9.894;2023-06-01T07:00:00;14.20;64.50
12819;DHT22;6474;53.474;9.894;2023-06-01T07:02:32;14.30;64.60
12819;DHT22;6474;53.474;9.894;2023-06-01T07:05:00;14.20;64.40
12819;DHT22;6474;53.474;9.894;2023-06-01T07:07:28;14.30;64.60
12819;DHT22;6474;53.474;9.894;2023-06-01T07:09:56;14.30;64.60
12819;DHT22;6474;53.474;9.894;2023-06-01T07:12:25;14.30;64.60
12819;DHT22;6474;53.474;9.894;2023-06-01T07:14:53;14.30;64.60
12819;DHT22;6474;53.474;9.894;2023-06-01T07:17:20;14.40;64.70
12819;DHT22;6474;53.474;9.894;2023-06-01T07:19:48;14.40;64.60
12819;DHT22;6474;53.474;9.894;2023-06-01T07:22:16;14.50;64.70
12819;DHT22;6474;53.474;9.894;2023-06-01T07:24:44;14.50;64.60
12819;DHT22;6474;53.474;9.894;2023-06-01T07:27:12;14.50;64.60
12819;DHT22;6474;53.474;9.894;2023-06-01T07:29:41;14.50;64.50
12819;DHT22;6474;53.474;9.894;2023-06-01T07:32:11;14.60;64.60
12819;DHT22;6474;53.474;9.894;2023-06-01T07:34:39;14.50;64.50
12819;DHT22;6474;53.474;9.894;2023-06-01T07:37:06;14.60;64.60
12819;DHT22;6474;53.474;9.894;2023-06-01T07:39:43;14.60;64.60
12819;DHT22;6474;53.474;9.894;2023-06-01T07:42:11;14.60;64.50
12819;DHT22;6474;53.474;9.894;2023-06-01T07:44:40;14.70;64.60
12819;DHT22;6474;53.474;9.894;2023-06-01T07:47:08;14.70;64.50
12819;DHT22;6474;53.474;9.894;2023-06-01T07:49:36;14.70;64.60
12819;DHT22;6474;53.474;9.894;2023-06-01T07:52:05;14.70;64.60
12819;DHT22;6474;53.474;9.894;2023-06-01T07:54:34;14.80;64.70
12819;DHT22;6474;53.474;9.894;2023-06-01T07:57:03;14.80;64.70
12819;DHT22;6474;53.474;9.894;2023-06-01T07:59:31;14.90;64.60
12819;DHT22;6474;53.474;9.894;2023-06-01T08:02:00;14.90;64.60
12819;DHT22;6474;53.474;9.894;2023-06-01T08:04:28;14.90;64.60
12819;DHT22;6474;53.474;9.894;2023-06-01T08:07:00;14.90;64.60
12819;DHT22;6474;53.474;9.894;2023-06-01T08:09:30;14.90;64.60
12819;DHT22;6474;53.474;9.894;2023-06-01T08:11:58;14.90;64.60
12819;DHT22;6474;53.474;9.894;2023-06-01T08:14:26;15.00;64.70
12819;DHT22;6474;53.474;9.894;2023-06-01T08:16:54;14.90;64.50
12819;DHT22;6474;53.474;9.894;2023-06-01T08:19:24;14.90;64.50
12819;DHT22;6474;53.474;9.894;2023-06-01T08:21:52;15.00;64.60
12819;DHT22;6474;53.474;9.894;2023-06-01T08:24:21;14.90;64.60
12819;DHT22;6474;53.474;9.894;2023-06-01T08:26:54;14.90;64.60
12819;DHT22;6474;53.474;9.894;2023-06-01T08:29:22;14.90;64.60
12819;DHT22;6474;53.474;9.894;2023-06-01T08:32:08;14.90;64.70
12819;DHT22;6474;53.474;9.894;2023-06-01T08:34:37;14.90;64.90
12819;DHT22;6474;53.474;9.894;2023-06-01T08:37:06;14.90;64.90
12819;DHT22;6474;53.474;9.894;2023-06-01T08:39:33;14.90;65.00
12819;DHT22;6474;53.474;9.894;2023-06-01T08:42:07;14.90;64.90
12819;DHT22;6474;53.474;9.894;2023-06-01T08:44:39;15.00;65.00
12819;DHT22;6474;53.474;9.894;2023-06-01T08:47:08;15.10;65.10
12819;DHT22;6474;53.474;9.894;2023-06-01T08:49:41;15.20;65.00
12819;DHT22;6474;53.474;9.894;2023-06-01T08:52:11;15.20;64.90
12819;DHT22;6474;53.474;9.894;2023-06-01T08:54:40;15.30;65.00
12819;DHT22;6474;53.474;9.894;2023-06-01T08:57:08;15.30;65.00
12819;DHT22;6474;53.474;9.894;2023-06-01T08:59:36;15.40;65.00
12819;DHT22;6474;53.474;9.894;2023-06-01T09:02:05;15.40;64.90
12819;DHT22;6474;53.474;9.894;2023-06-01T09:04:33;15.40;65.00
12819;DHT22;6474;53.474;9.894;2023-06-01T09:07:05;15.40;65.00
12819;DHT22;6474;53.474;9.894;2023-06-01T09:09:34;15.40;64.90
12819;DHT22;6474;53.474;9.894;2023-06-01T09:12:21;15.40;65.70
12819;DHT22;6474;53.474;9.894;2023-06-01T09:14:51;15.40;65.00
12819;DHT22;6474;53.474;9.894;2023-06-01T09:17:23;15.40;64.90
12819;DHT22;6474;53.474;9.894;2023-06-01T09:19:54;15.40;64.90
12819;DHT22;6474;53.474;9.894;2023-06-01T09:22:24;15.40;65.00
12819;DHT22;6474;53.474;9.894;2023-06-01T09:24:56;15.40;65.00
12819;DHT22;6474;53.474;9.894;2023-06-01T09:27:25;15.40;65.00
12819;DHT22;6474;53.474;9.894;2023-06-01T09:29:53;15.40;65.00
12819;DHT22;6474;53.474;9.894;2023-06-01T09:32:22;15.40;65.00
12819;DHT22;6474;53.474;9.894;2023-06-01T09:34:50;15.50;65.20
12819;DHT22;6474;53.474;9.894;2023-06-01T09:37:18;15.60;65.10
12819;DHT22;6474;53.474;9.894;2023-06-01T09:39:47;15.70;65.10
12819;DHT22;6474;53.474;9.894;2023-06-01T09:42:15;15.70;64.90
12819;DHT22;6474;53.474;9.894;2023-06-01T09:44:44;15.80;65.10
12819;DHT22;6474;53.474;9.894;2023-06-01T09:47:12;15.90;65.10
12819;DHT22;6474;53.474;9.894;2023-06-01T09:49:41;16.00;65.00
12819;DHT22;6474;53.474;9.894;2023-06-01T09:52:12;16.10;65.00
12819;DHT22;6474;53.474;9.894;2023-06-01T09:54:43;16.10;64.90
12819;DHT22;6474;53.474;9.894;2023-06-01T09:57:19;16.20;64.90
12819;DHT22;6474;53.474;9.894;2023-06-01T09:59:47;16.20;65.00
12819;DHT22;6474;53.474;9.894;2023-06-01T10:02:17;16.20;64.90
12819;DHT22;6474;53.474;9.894;2023-06-01T10:04:48;16.20;64.90
12819;DHT22;6474;53.474;9.894;2023-06-01T10:07:18;16.20;65.00
12819;DHT22;6474;53.474;9.894;2023-06-01T10:09:50;16.30;65.10
12819;DHT22;6474;53.474;9.894;2023-06-01T10:12:20;16.30;65.00
12819;DHT22;6474;53.474;9.894;2023-06-01T10:14:50;16.40;65.00
12819;DHT22;6474;53.474;9.894;2023-06-01T10:17:18;16.40;64.90
12819;DHT22;6474;53.474;9.894;2023-06-01T10:19:47;16.50;65.00
12819;DHT22;6474;53.474;9.894;2023-06-01T10:22:16;16.50;64.90
12819;DHT22;6474;53.474;9.894;2023-06-01T10:24:44;16.50;65.00
12819;DHT22;6474;53.474;9.894;2023-06-01T10:27:19;16.50;65.10
12819;DHT22;6474;53.474;9.894;2023-06-01T10:29:49;16.50;65.00
12819;DHT22;6474;53.474;9.894;2023-06-01T10:32:41;16.60;65.00
12819;DHT22;6474;53.474;9.894;2023-06-01T10:38:21;16.60;64.90
12819;DHT22;6474;53.474;9.894;2023-06-01T10:40:49;16.50;64.80
12819;DHT22;6474;53.474;9.894;2023-06-01T10:43:39;16.50;64.90
12819;DHT22;6474;53.474;9.894;2023-06-01T10:46:43;16.40;64.90
12819;DHT22;6474;53.474;9.894;2023-06-01T10:49:11;16.40;65.00
12819;DHT22;6474;53.474;9.894;2023-06-01T10:51:39;16.30;65.00
12819;DHT22;6474;53.474;9.894;2023-06-01T10:57:21;16.20;65.10
12819;DHT22;6474;53.474;9.894;2023-06-01T11:00:08;16.20;65.10
12819;DHT22;6474;53.474;9.894;2023-06-01T11:02:44;16.20;65.20
12819;DHT22;6474;53.474;9.894;2023-06-01T11:05:35;16.30;65.30
12819;DHT22;6474;53.474;9.894;2023-06-01T11:08:03;16.40;65.40
12819;DHT22;6474;53.474;9.894;2023-06-01T11:10:54;16.50;65.40
12819;DHT22;6474;53.474;9.894;2023-06-01T11:13:24;16.60;65.30
12819;DHT22;6474;53.474;9.894;2023-06-01T11:16:31;16.70;65.20
12819;DHT22;6474;53.474;9.894;2023-06-01T11:19:02;16.80;65.00
12819;DHT22;6474;53.474;9.894;2023-06-01T11:21:35;16.80;64.90
12819;DHT22;6474;53.474;9.894;2023-06-01T11:24:06;16.80;64.90
12819;DHT22;6474;53.474;9.894;2023-06-01T11:26:37;16.80;64.90
12819;DHT22;6474;53.474;9.894;2023-06-01T11:29:11;16.90;65.00
12819;DHT22;6474;53.474;9.894;2023-06-01T11:31:42;16.90;65.00
12819;DHT22;6474;53.474;9.894;2023-06-01T11:34:13;16.90;65.00
12819;DHT22;6474;53.474;9.894;2023-06-01T11:36:42;17.00;65.00
12819;DHT22;6474;53.474;9.894;2023-06-01T11:39:21;17.10;65.20
12819;DHT22;6474;53.474;9.894;2023-06-01T11:41:52;17.10;65.10
12819;DHT22;6474;53.474;9.894;2023-06-01T11:44:20;17.10;64.90
12819;DHT22;6474;53.474;9.894;2023-06-01T11:46:52;17.10;64.90
12819;DHT22;6474;53.474;9.894;2023-06-01T11:49:22;17.10;65.00
12819;DHT22;6474;53.474;9.894;2023-06-01T11:51:50;17.10;65.10
12819;DHT22;6474;53.474;9.894;2023-06-01T11:54:23;17.20;65.10
12819;DHT22;6474;53.474;9.894;2023-06-01T11:56:51;17.10;65.10
12819;DHT22;6474;53.474;9.894;2023-06-01T11:59:23;17.20;65.20
12819;DHT22;6474;53.474;9.894;2023-06-01T12:01:52;17.20;65.10
12819;DHT22;6474;53.474;9.894;2023-06-01T12:04:23;17.10;65.10
12819;DHT22;6474;53.474;9.894;2023-06-01T12:07:03;17.20;65.30
12819;DHT22;6474;53.474;9.894;2023-06-01T12:09:32;17.20;65.10
12819;DHT22;6474;53.474;9.894;2023-06-01T12:12:01;17.30;65.10
12819;DHT22;6474;53.474;9.894;2023-06-01T12:14:29;17.20;64.90
12819;DHT22;6474;53.474;9.894;2023-06-01T12:16:58;17.30;65.00
12819;DHT22;6474;53.474;9.894;2023-06-01T12:19:29;17.20;64.80
12819;DHT22;6474;53.474;9.894;2023-06-01T12:22:00;17.20;64.90
12819;DHT22;6474;53.474;9.894;2023-06-01T12:24:29;17.30;65.80
12819;DHT22;6474;53.474;9.894;2023-06-01T12:27:00;17.30;65.10
12819;DHT22;6474;53.474;9.894;2023-06-01T12:29:39;17.30;65.00
12819;DHT22;6474;53.474;9.894;2023-06-01T12:32:09;17.30;64.80
12819;DHT22;6474;53.474;9.894;2023-06-01T12:34:39;17.20;64.90
12819;DHT22;6474;53.474;9.894;2023-06-01T12:37:14;17.20;65.00
12819;DHT22;6474;53.474;9.894;2023-06-01T12:39:43;17.20;64.90
12819;DHT22;6474;53.474;9.894;2023-06-01T12:42:11;17.10;64.80
12819;DHT22;6474;53.474;9.894;2023-06-01T12:44:39;17.10;64.90
12819;DHT22;6474;53.474;9.894;2023-06-01T12:47:08;17.10;65.10
12819;DHT22;6474;53.474;9.894;2023-06-01T12:49:36;17.00;65.00
12819;DHT22;6474;53.474;9.894;2023-06-01T12:52:08;17.10;65.20
12819;DHT22;6474;53.474;9.894;2023-06-01T12:54:36;17.10;65.20
12819;DHT22;6474;53.474;9.894;2023-06-01T12:57:12;17.10;65.10
12819;DHT22;6474;53.474;9.894;2023-06-01T12:59:41;17.00;65.00
12819;DHT22;6474;53.474;9.894;2023-06-01T13:02:09;17.10;65.20
12819;DHT22;6474;53.474;9.894;2023-06-01T13:04:39;17.20;65.20
12819;DHT22;6474;53.474;9.894;2023-06-01T13:07:09;17.20;65.10
12819;DHT22;6474;53.474;9.894;2023-06-01T13:09:36;17.30;65.10
12819;DHT22;6474;53.474;9.894;2023-06-01T13:12:05;17.40;65.00
12819;DHT22;6474;53.474;9.894;2023-06-01T13:14:33;17.50;64.80
12819;DHT22;6474;53.474;9.894;2023-06-01T13:17:01;17.50;64.60
12819;DHT22;6474;53.474;9.894;2023-06-01T13:19:30;17.70;64.70
12819;DHT22;6474;53.474;9.894;2023-06-01T13:21:57;17.80;64.40
12819;DHT22;6474;53.474;9.894;2023-06-01T13:24:27;17.80;64.10
12819;DHT22;6474;53.474;9.894;2023-06-01T13:27:10;17.80;64.20
12819;DHT22;6474;53.474;9.894;2023-06-01T13:29:38;17.90;64.20
12819;DHT22;6474;53.474;9.894;2023-06-01T13:32:06;17.90;64.20
12819;DHT22;6474;53.474;9.894;2023-06-01T13:34:35;17.90;64.20
12819;DHT22;6474;53.474;9.894;2023-06-01T13:37:03;18.00;64.30
12819;DHT22;6474;53.474;9.894;2023-06-01T13:39:32;18.00;64.10
12819;DHT22;6474;53.474;9.894;2023-06-01T13:42:00;18.10;64.10
12819;DHT22;6474;53.474;9.894;2023-06-01T13:44:29;18.00;64.00
12819;DHT22;6474;53.474;9.894;2023-06-01T13:46:57;17.90;64.10
12819;DHT22;6474;53.474;9.894;2023-06-01T13:49:25;17.90;65.00
12819;DHT22;6474;53.474;9.894;2023-06-01T13:51:53;17.70;64.00
12819;DHT22;6474;53.474;9.894;2023-06-01T13:54:21;17.90;64.20
12819;DHT22;6474;53.474;9.894;2023-06-01T13:56:51;17.80;64.10
12819;DHT22;6474;53.474;9.894;2023-06-01T13:59:19;17.80;64.10
12819;DHT22;6474;53.474;9.894;2023-06-01T14:01:47;17.80;65.00
12819;DHT22;6474;53.474;9.894;2023-06-01T14:04:15;17.90;64.30
12819;DHT22;6474;53.474;9.894;2023-06-01T14:06:45;17.80;64.10
12819;DHT22;6474;53.474;9.894;2023-06-01T14:09:19;17.80;64.20
12819;DHT22;6474;53.474;9.894;2023-06-01T14:11:47;17.70;64.00
12819;DHT22;6474;53.474;9.894;2023-06-01T14:14:16;17.70;64.00
12819;DHT22;6474;53.474;9.894;2023-06-01T14:16:44;17.60;64.70
12819;DHT22;6474;53.474;9.894;2023-06-01T14:19:13;17.60;63.90
12819;DHT22;6474;53.474;9.894;2023-06-01T14:21:41;17.50;63.90
12819;DHT22;6474;53.474;9.894;2023-06-01T14:24:08;17.40;63.70
12819;DHT22;6474;53.474;9.894;2023-06-01T14:26:36;17.30;63.70
12819;DHT22;6474;53.474;9.894;2023-06-01T14:29:04;17.30;63.90
12819;DHT22;6474;53.474;9.894;2023-06-01T14:31:33;17.10;63.70
12819;DHT22;6474;53.474;9.894;2023-06-01T14:34:01;17.10;63.80
12819;DHT22;6474;53.474;9.894;2023-06-01T14:36:29;17.10;64.70
12819;DHT22;6474;53.474;9.894;2023-06-01T14:39:12;17.10;63.70
12819;DHT22;6474;53.474;9.894;2023-06-01T14:41:40;17.10;63.60
12819;DHT22;6474;53.474;9.894;2023-06-01T14:44:11;17.10;63.60
12819;DHT22;6474;53.474;9.894;2023-06-01T14:46:40;17.00;63.60
12819;DHT22;6474;53.474;9.894;2023-06-01T14:49:08;17.00;63.70
12819;DHT22;6474;53.474;9.894;2023-06-01T14:51:36;17.00;63.80
12819;DHT22;6474;53.474;9.894;2023-06-01T14:54:04;17.10;63.70
12819;DHT22;6474;53.474;9.894;2023-06-01T14:56:32;17.10;63.30
12819;DHT22;6474;53.474;9.894;2023-06-01T14:59:00;17.10;63.40
12819;DHT22;6474;53.474;9.894;2023-06-01T15:01:28;17.20;63.40
12819;DHT22;6474;53.474;9.894;2023-06-01T15:03:57;17.20;63.40
12819;DHT22;6474;53.474;9.894;2023-06-01T15:06:25;17.30;63.60
12819;DHT22;6474;53.474;9.894;2023-06-01T15:08:53;17.40;63.50
12819;DHT22;6474;53.474;9.894;2023-06-01T15:11:21;17.30;63.20
12819;DHT22;6474;53.474;9.894;2023-06-01T15:13:49;17.30;63.50
12819;DHT22;6474;53.474;9.894;2023-06-01T15:16:16;17.30;63.40
12819;DHT22;6474;53.474;9.894;2023-06-01T15:18:45;17.30;63.60
12819;DHT22;6474;53.474;9.894;2023-06-01T15:21:14;17.40;63.70
12819;DHT22;6474;53.474;9.894;2023-06-01T15:23:42;17.50;63.60
12819;DHT22;6474;53.474;9.894;2023-06-01T15:26:10;17.40;63.20
12819;DHT22;6474;53.474;9.894;2023-06-01T15:28:38;17.40;63.30
12819;DHT22;6474;53.474;9.894;2023-06-01T15:31:05;17.40;63.60
12819;DHT22;6474;53.474;9.894;2023-06-01T15:33:33;17.30;63.60
12819;DHT22;6474;53.474;9.894;2023-06-01T15:36:02;17.20;63.40
12819;DHT22;6474;53.474;9.894;2023-06-01T15:38:31;17.10;63.30
12819;DHT22;6474;53.474;9.894;2023-06-01T15:40:58;17.00;63.30
12819;DHT22;6474;53.474;9.894;2023-06-01T15:43:27;17.00;63.40
12819;DHT22;6474;53.474;9.894;2023-06-01T15:45:55;17.00;63.40
12819;DHT22;6474;53.474;9.894;2023-06-01T15:48:23;17.00;63.70
12819;DHT22;6474;53.474;9.894;2023-06-01T15:50:51;17.10;63.70
12819;DHT22;6474;53.474;9.894;2023-06-01T15:53:21;17.00;63.50
12819;DHT22;6474;53.474;9.894;2023-06-01T15:55:50;17.00;63.50
12819;DHT22;6474;53.474;9.894;2023-06-01T15:58:18;16.90;63.60
12819;DHT22;6474;53.474;9.894;2023-06-01T16:00:45;16.90;63.40
12819;DHT22;6474;53.474;9.894;2023-06-01T16:03:24;16.90;63.40
12819;DHT22;6474;53.474;9.894;2023-06-01T16:05:52;16.80;63.40
12819;DHT22;6474;53.474;9.894;2023-06-01T16:08:19;16.80;63.60